Time;durP1;ratioP1;P1;durP2;ratioP2;P2;SDS_P1;SDS_P2;PMS_P1;PMS_P2;Temp;Humidity;BMP_temperature;BMP_pressure;BME280_temperature;BME280_humidity;BME280_pressure;Samples;Min_cycle;Max_cycle;Signal;HPM_P1;HPM_P2
2023/06/03 00:01:04;;;;;;;;;;;;;;;14.85;55.38;101275.56;5070847;28;1520;-72
2023/06/03 00:03:31;;;;;;;;;;;;;;;15.12;55.20;101314.00;5057293;28;5463;-72
2023/06/03 00:05:58;;;;;;;;;;;;;;;15.10;55.20;101319.66;5081991;28;1944;-73
2023/06/03 00:08:25;;;;;;;;;;;;;;;15.09;55.34;101317.16;5054482;28;1511;-72
2023/06/03 00:10:51;;;;;;;;;;;;;;;15.09;55.36;101314.44;5070088;28;1531;-73
2023/06/03 00:13:18;;;;;;;;;;;;;;;15.07;55.30;101311.97;5048760;28;1726;-72
2023/06/03 00:15:44;;;;;;;;;;;;;;;15.06;55.25;101314.91;5068296;28;3472;-72
2023/06/03 00:18:11;;;;;;;;;;;;;;;15.05;55.22;101311.38;5053739;28;2767;-73
2023/06/03 00:20:37;;;;;;;;;;;;;;;15.05;55.11;101305.13;5069408;28;1485;-72
2023/06/03 00:23:05;;;;;;;;;;;;;;;15.04;55.15;101307.00;5052292;28;2516;-73
2023/06/03 00:25:31;;;;;;;;;;;;;;;15.03;55.15;101302.66;5074890;28;2069;-72
2023/06/03 00:27:58;;;;;;;;;;;;;;;15.02;55.08;101300.16;5054792;28;1474;-72
2023/06/03 00:30:24;;;;;;;;;;;;;;;15.01;55.06;101307.47;5069092;28;1562;-73
2023/06/03 00:32:51;;;;;;;;;;;;;;;15.00;55.05;101300.41;5071057;28;1847;-72
2023/06/03 00:35:17;;;;;;;;;;;;;;;14.99;54.99;101309.56;5068861;28;2041;-71
2023/06/03 00:37:44;;;;;;;;;;;;;;;14.55;55.14;101260.13;5070038;28;1542;-72
2023/06/03 00:40:11;;;;;;;;;;;;;;;14.97;55.04;101314.41;5058239;28;1506;-72
2023/06/03 00:42:37;;;;;;;;;;;;;;;14.97;54.98;101312.53;5053208;28;2269;-73
2023/06/03 00:45:04;;;;;;;;;;;;;;;14.95;55.14;101314.66;5053775;28;1552;-72
2023/06/03 00:47:30;;;;;;;;;;;;;;;14.95;55.04;101316.53;5075294;28;1629;-72
2023/06/03 00:49:57;;;;;;;;;;;;;;;14.97;54.86;101312.53;5056072;28;1941;-73
2023/06/03 00:52:23;;;;;;;;;;;;;;;14.94;55.16;101313.00;5066897;28;1525;-73
2023/06/03 00:54:51;;;;;;;;;;;;;;;14.92;55.06;101309.69;5061442;28;1965;-73
2023/06/03 00:57:17;;;;;;;;;;;;;;;14.93;54.94;101305.91;5054360;28;1625;-73
2023/06/03 00:59:44;;;;;;;;;;;;;;;14.93;54.85;101307.78;5070421;28;1549;-73
2023/06/03 01:02:12;;;;;;;;;;;;;;;14.88;54.93;101300.38;5067149;28;1878;-72
2023/06/03 01:04:39;;;;;;;;;;;;;;;14.95;54.73;101302.97;5052264;28;1468;-73
2023/06/03 01:07:07;;;;;;;;;;;;;;;14.92;54.88;101301.53;5075696;28;1472;-72
2023/06/03 01:09:33;;;;;;;;;;;;;;;14.96;54.61;101294.59;5052864;28;1654;-73
2023/06/03 01:11:59;;;;;;;;;;;;;;;15.18;53.98;101297.63;5068062;28;2061;-72
2023/06/03 01:14:26;;;;;;;;;;;;;;;15.11;53.96;101298.75;5053688;28;1981;-72
2023/06/03 01:16:55;;;;;;;;;;;;;;;14.96;54.34;101283.75;5069559;28;1459;-72
2023/06/03 01:19:22;;;;;;;;;;;;;;;15.06;54.07;101288.63;5068260;28;1621;-74
2023/06/03 01:21:48;;;;;;;;;;;;;;;15.27;53.47;101286.44;5072714;28;1824;-72
2023/06/03 01:24:16;;;;;;;;;;;;;;;15.21;53.50;101302.56;5068392;28;1512;-71
2023/06/03 01:26:42;;;;;;;;;;;;;;;15.32;53.41;101295.50;5055071;28;1583;-72
2023/06/03 01:29:09;;;;;;;;;;;;;;;15.12;53.91;101295.84;5071368;28;2140;-74
2023/06/03 01:31:35;;;;;;;;;;;;;;;15.11;53.73;101302.31;5067255;28;4649;-73
2023/06/03 01:34:02;;;;;;;;;;;;;;;15.03;53.97;101305.38;5070138;28;1458;-73
2023/06/03 01:36:29;;;;;;;;;;;;;;;15.12;53.71;101308.56;5068267;28;1975;-72
2023/06/03 01:38:55;;;;;;;;;;;;;;;15.08;53.62;101312.78;5070128;28;2112;-72
2023/06/03 01:41:22;;;;;;;;;;;;;;;15.29;53.25;101303.28;5066830;28;1481;-72
2023/06/03 01:43:48;;;;;;;;;;;;;;;15.23;53.36;101299.63;5070133;28;1546;-72
2023/06/03 01:46:15;;;;;;;;;;;;;;;14.76;53.57;101246.09;5068481;28;1469;-73
2023/06/03 01:48:41;;;;;;;;;;;;;;;15.19;53.22;101312.00;5066915;28;1952;-73
2023/06/03 01:51:08;;;;;;;;;;;;;;;15.28;52.76;101312.50;5052429;28;1986;-72
2023/06/03 01:53:34;;;;;;;;;;;;;;;15.34;52.87;101311.56;5046872;28;1705;-72
2023/06/03 01:56:01;;;;;;;;;;;;;;;15.25;52.97;101311.06;5045822;28;1914;-71
2023/06/03 01:58:28;;;;;;;;;;;;;;;15.05;53.47;101305.94;5068537;28;1997;-72
2023/06/03 02:00:55;;;;;;;;;;;;;;;14.60;53.50;101246.72;5068993;28;2019;-73
2023/06/03 02:03:21;;;;;;;;;;;;;;;14.97;53.56;101301.69;5068536;28;1474;-72
2023/06/03 02:05:48;;;;;;;;;;;;;;;15.08;53.39;101294.63;5063510;28;1513;-74
2023/06/03 02:08:15;;;;;;;;;;;;;;;15.01;53.33;101296.63;5070901;28;1961;-73
2023/06/03 02:10:41;;;;;;;;;;;;;;;15.16;53.09;101298.91;5069846;28;1528;-72
2023/06/03 02:13:08;;;;;;;;;;;;;;;15.06;53.16;101304.06;5047032;28;1745;-73
2023/06/03 02:15:34;;;;;;;;;;;;;;;15.12;53.13;101297.72;5053188;28;1975;-73
2023/06/03 02:18:01;;;;;;;;;;;;;;;14.88;53.55;101292.22;5067608;28;2100;-73
2023/06/03 02:20:27;;;;;;;;;;;;;;;15.15;52.93;101289.94;5047093;28;1610;-72
2023/06/03 02:22:54;;;;;;;;;;;;;;;14.93;53.67;101291.50;5064229;28;1812;-72
2023/06/03 02:25:21;;;;;;;;;;;;;;;14.93;53.60;101297.75;5065767;28;1539;-72
2023/06/03 02:27:48;;;;;;;;;;;;;;;15.02;53.25;101300.97;5059015;28;1997;-72
2023/06/03 02:30:14;;;;;;;;;;;;;;;15.01;53.30;101303.94;5067322;28;1984;-72
2023/06/03 02:32:41;;;;;;;;;;;;;;;15.04;53.01;101295.34;5076904;28;1717;-73
2023/06/03 02:35:08;;;;;;;;;;;;;;;14.89;53.46;101298.47;5068187;28;4663;-73
2023/06/03 02:37:34;;;;;;;;;;;;;;;14.91;53.48;101299.03;5087073;28;2021;-72
2023/06/03 02:40:01;;;;;;;;;;;;;;;14.87;53.41;101295.97;5076709;28;1491;-73
2023/06/03 02:42:27;;;;;;;;;;;;;;;14.83;53.52;101307.53;5073484;28;1540;-73
2023/06/03 02:44:54;;;;;;;;;;;;;;;14.85;53.34;101313.53;5068025;28;1638;-73
2023/06/03 02:47:20;;;;;;;;;;;;;;;14.79;53.60;101303.59;5069297;28;3746;-74
2023/06/03 02:49:47;;;;;;;;;;;;;;;14.87;53.33;101304.13;5087421;28;1529;-73
2023/06/03 02:52:13;;;;;;;;;;;;;;;14.92;53.25;101303.44;5086522;28;2101;-73
2023/06/03 02:54:40;;;;;;;;;;;;;;;14.86;53.24;101304.34;5068644;28;1988;-73
2023/06/03 02:57:07;;;;;;;;;;;;;;;14.64;53.81;101309.44;5073818;28;1872;-74
2023/06/03 02:59:34;;;;;;;;;;;;;;;15.08;52.65;101304.66;5070422;28;1775;-73
2023/06/03 03:02:00;;;;;;;;;;;;;;;14.75;53.44;101303.25;5089579;28;2045;-73
2023/06/03 03:04:27;;;;;;;;;;;;;;;14.75;53.43;101300.53;5069019;28;2522;-73
2023/06/03 03:06:54;;;;;;;;;;;;;;;14.73;53.34;101299.91;5068352;28;1493;-73
2023/06/03 03:09:20;;;;;;;;;;;;;;;14.72;53.46;101301.81;5070639;28;1770;-73
2023/06/03 03:11:47;;;;;;;;;;;;;;;14.60;53.83;101303.66;5098098;28;1509;-73
2023/06/03 03:14:13;;;;;;;;;;;;;;;14.71;53.47;101302.06;5069474;28;1938;-73
2023/06/03 03:16:40;;;;;;;;;;;;;;;14.60;53.50;101300.94;5071096;28;1914;-73
2023/06/03 03:19:06;;;;;;;;;;;;;;;14.66;53.61;101293.78;5072822;28;1521;-73
2023/06/03 03:21:33;;;;;;;;;;;;;;;14.56;53.81;101293.47;5089563;28;1797;-73
2023/06/03 03:24:00;;;;;;;;;;;;;;;14.64;53.49;101294.00;5069307;28;2026;-73
2023/06/03 03:26:26;;;;;;;;;;;;;;;14.60;53.62;101300.94;5093708;28;1420;-73
2023/06/03 03:28:53;;;;;;;;;;;;;;;14.60;53.50;101300.13;5088536;28;1511;-73
2023/06/03 03:31:20;;;;;;;;;;;;;;;14.49;53.91;101305.19;5089396;28;1825;-73
2023/06/03 03:33:46;;;;;;;;;;;;;;;14.54;53.62;101305.38;5089844;28;1777;-73
2023/06/03 03:36:20;;;;;;;;;;;;;;;14.56;53.41;101307.88;5088785;28;1913;-73
2023/06/03 03:38:46;;;;;;;;;;;;;;;14.58;53.55;101308.47;5092328;28;1675;-73
2023/06/03 03:41:13;;;;;;;;;;;;;;;14.49;53.62;101304.38;5071427;28;1820;-73
2023/06/03 03:43:39;;;;;;;;;;;;;;;14.48;53.77;101305.44;5091008;28;1434;-73
2023/06/03 03:46:06;;;;;;;;;;;;;;;14.48;53.69;101302.72;5075197;28;1473;-73
2023/06/03 03:48:32;;;;;;;;;;;;;;;14.53;53.57;101301.03;5094415;28;1473;-73
2023/06/03 03:50:59;;;;;;;;;;;;;;;14.54;53.43;101308.09;5090949;28;2044;-73
2023/06/03 03:53:25;;;;;;;;;;;;;;;14.46;53.66;101311.06;5090010;28;1866;-73
2023/06/03 03:55:52;;;;;;;;;;;;;;;14.58;53.23;101307.63;5089873;28;1973;-72
2023/06/03 03:58:18;;;;;;;;;;;;;;;14.50;53.56;101311.44;5069763;28;4628;-74
2023/06/03 04:00:45;;;;;;;;;;;;;;;14.50;53.48;101308.72;5071271;28;1760;-72
2023/06/03 04:03:12;;;;;;;;;;;;;;;14.52;53.32;101312.91;5088817;28;1887;-72
2023/06/03 04:05:38;;;;;;;;;;;;;;;14.65;53.25;101311.09;5091702;28;1421;-73
2023/06/03 04:08:05;;;;;;;;;;;;;;;14.54;53.33;101315.41;5099815;27;1437;-72
2023/06/03 04:10:31;;;;;;;;;;;;;;;14.58;53.15;101321.19;5083144;28;2020;-73
2023/06/03 04:13:21;;;;;;;;;;;;;;;14.50;53.45;101312.28;5080938;28;1922;-72
2023/06/03 04:16:13;;;;;;;;;;;;;;;14.50;53.22;101319.56;5083326;27;1917;-73
2023/06/03 04:19:06;;;;;;;;;;;;;;;14.46;53.30;101318.38;5088469;28;1720;-73
2023/06/03 04:21:53;;;;;;;;;;;;;;;14.60;53.02;101321.78;5082365;28;1792;-72
2023/06/03 04:24:39;;;;;;;;;;;;;;;14.41;53.28;101321.78;5095621;28;1895;-74
2023/06/03 04:27:26;;;;;;;;;;;;;;;14.52;53.21;101320.22;5086906;28;1508;-72
2023/06/03 04:30:18;;;;;;;;;;;;;;;14.45;53.37;101322.97;5089718;28;1540;-72
2023/06/03 04:33:10;;;;;;;;;;;;;;;14.53;53.07;101328.13;5072014;28;5107;-72
2023/06/03 04:36:02;;;;;;;;;;;;;;;14.40;53.37;101320.09;5078795;28;1979;-72
2023/06/03 04:38:55;;;;;;;;;;;;;;;14.42;53.25;101318.00;5085479;28;2879;-73
2023/06/03 04:41:47;;;;;;;;;;;;;;;14.48;53.03;101329.84;5079161;28;1960;-73
2023/06/03 04:44:39;;;;;;;;;;;;;;;14.38;53.23;101316.78;5074022;28;1564;-73
2023/06/03 04:47:31;;;;;;;;;;;;;;;14.46;53.15;101318.38;5061425;28;1693;-73
2023/06/03 04:50:24;;;;;;;;;;;;;;;14.37;53.42;101317.84;5064117;28;2662;-72
2023/06/03 04:53:16;;;;;;;;;;;;;;;14.28;53.64;101328.16;5059715;28;1970;-74
2023/06/03 04:56:08;;;;;;;;;;;;;;;14.31;53.54;101318.75;5076947;28;1907;-73
2023/06/03 04:59:00;;;;;;;;;;;;;;;14.40;52.96;101316.56;5083985;28;1621;-73
2023/06/03 05:01:52;;;;;;;;;;;;;;;14.44;53.03;101321.34;5069518;28;1936;-72
2023/06/03 05:04:44;;;;;;;;;;;;;;;14.61;52.55;101318.84;5082844;28;1514;-73
2023/06/03 05:07:37;;;;;;;;;;;;;;;14.44;52.94;101321.34;5080079;28;2269;-72
2023/06/03 05:10:24;;;;;;;;;;;;;;;14.36;53.18;101324.34;5074089;28;3793;-72
2023/06/03 05:13:10;;;;;;;;;;;;;;;14.34;53.21;101322.91;5070972;28;2085;-72
2023/06/03 05:15:55;;;;;;;;;;;;;;;14.36;53.12;101315.38;5054733;28;3419;-73
2023/06/03 05:18:42;;;;;;;;;;;;;;;14.30;53.31;101323.34;5062160;28;2797;-72
2023/06/03 05:21:25;;;;;;;;;;;;;;;14.30;53.23;101317.94;5067667;28;2656;-72
2023/06/03 05:23:51;;;;;;;;;;;;;;;14.32;53.27;101317.69;5069709;28;1718;-73
2023/06/03 05:26:20;;;;;;;;;;;;;;;14.34;52.97;101312.06;5064503;28;2600;-74
2023/06/03 05:28:50;;;;;;;;;;;;;;;14.25;53.41;101312.34;5071354;28;2414;-73
2023/06/03 05:31:27;;;;;;;;;;;;;;;14.32;52.91;101314.97;5062407;28;2321;-72
2023/06/03 05:33:55;;;;;;;;;;;;;;;14.38;52.96;101315.97;5080298;28;1596;-72
2023/06/03 05:36:22;;;;;;;;;;;;;;;14.28;53.20;101305.66;5077961;28;4276;-72
2023/06/03 05:38:49;;;;;;;;;;;;;;;14.24;53.30;101318.84;5077829;28;3024;-72
2023/06/03 05:41:25;;;;;;;;;;;;;;;14.28;53.27;101316.50;5083344;28;2929;-73
2023/06/03 05:43:52;;;;;;;;;;;;;;;14.23;53.20;101321.75;5075937;28;2265;-73
2023/06/03 05:46:20;;;;;;;;;;;;;;;14.18;53.14;101317.03;5070379;28;1759;-73
2023/06/03 05:48:47;;;;;;;;;;;;;;;14.14;53.61;101321.22;5056931;28;2766;-72
2023/06/03 05:51:14;;;;;;;;;;;;;;;14.31;52.84;101322.28;5067146;28;3515;-73
2023/06/03 05:53:43;;;;;;;;;;;;;;;14.28;53.10;101332.75;5064164;28;3116;-73
2023/06/03 05:56:10;;;;;;;;;;;;;;;14.15;53.27;101322.91;5044112;28;2660;-73
2023/06/03 05:58:38;;;;;;;;;;;;;;;14.16;53.31;101329.97;5034841;28;1828;-73
2023/06/03 06:01:04;;;;;;;;;;;;;;;14.09;53.43;101319.22;5049830;28;1705;-73
2023/06/03 06:03:31;;;;;;;;;;;;;;;14.20;53.07;101328.44;5049372;28;1635;-73
2023/06/03 06:05:58;;;;;;;;;;;;;;;14.13;53.39;101316.88;5060998;28;1658;-73
2023/06/03 06:08:25;;;;;;;;;;;;;;;14.15;53.25;101319.34;5053987;28;2018;-73
2023/06/03 06:10:51;;;;;;;;;;;;;;;14.11;53.21;101318.97;5064343;28;1583;-73
2023/06/03 06:13:18;;;;;;;;;;;;;;;14.10;53.35;101311.91;5065371;28;3333;-73
2023/06/03 06:15:45;;;;;;;;;;;;;;;14.12;53.35;101309.81;5066934;28;3162;-73
2023/06/03 06:18:11;;;;;;;;;;;;;;;14.11;53.50;101304.59;5067452;28;2475;-73
2023/06/03 06:20:38;;;;;;;;;;;;;;;14.10;53.50;101311.91;5068346;28;1526;-73
2023/06/03 06:23:04;;;;;;;;;;;;;;;14.19;53.09;101307.03;5073166;28;1586;-73
2023/06/03 06:25:31;;;;;;;;;;;;;;;14.14;53.37;101313.09;5049339;28;1516;-73
2023/06/03 06:27:57;;;;;;;;;;;;;;;14.12;53.47;101308.97;5066880;28;1812;-74
2023/06/03 06:30:25;;;;;;;;;;;;;;;14.12;53.31;101306.25;5071055;28;1418;-73
2023/06/03 06:32:51;;;;;;;;;;;;;;;14.09;53.27;101305.66;5066000;28;2444;-72
2023/06/03 06:35:18;;;;;;;;;;;;;;;14.08;53.39;101304.00;5075352;28;1423;-73
2023/06/03 06:37:49;;;;;;;;;;;;;;;14.08;53.43;101295.03;5079721;28;1980;-73
2023/06/03 06:40:16;;;;;;;;;;;;;;;14.08;53.23;101292.34;5063379;28;2082;-73
2023/06/03 06:42:43;;;;;;;;;;;;;;;14.19;53.13;101296.19;5081067;28;1393;-73
2023/06/03 06:45:10;;;;;;;;;;;;;;;14.12;53.23;101303.53;5080409;28;1397;-73
2023/06/03 06:47:37;;;;;;;;;;;;;;;14.21;53.01;101310.34;5080933;28;2108;-74
2023/06/03 06:50:03;;;;;;;;;;;;;;;14.10;53.42;101303.78;5077326;28;2849;-73
2023/06/03 06:52:30;;;;;;;;;;;;;;;14.11;53.20;101307.31;5078770;28;2039;-74
2023/06/03 06:54:58;;;;;;;;;;;;;;;14.08;53.42;101316.72;5080064;28;2052;-72
2023/06/03 06:57:25;;;;;;;;;;;;;;;14.08;53.42;101314.81;5080398;28;2058;-74
2023/06/03 06:59:52;;;;;;;;;;;;;;;14.15;53.29;101312.06;5068969;28;1519;-74
2023/06/03 07:02:19;;;;;;;;;;;;;;;14.18;52.99;101308.91;5068063;28;1577;-74
2023/06/03 07:04:46;;;;;;;;;;;;;;;14.12;53.32;101307.09;5064615;28;2078;-73
2023/06/03 07:07:12;;;;;;;;;;;;;;;14.09;53.29;101305.66;5065656;28;2474;-73
2023/06/03 07:09:39;;;;;;;;;;;;;;;14.11;53.37;101310.84;5064584;28;1478;-73
2023/06/03 07:12:05;;;;;;;;;;;;;;;14.12;53.20;101308.97;5075841;28;1435;-73
2023/06/03 07:14:32;;;;;;;;;;;;;;;14.09;53.26;101311.09;5073296;28;1673;-73
2023/06/03 07:16:58;;;;;;;;;;;;;;;13.99;53.53;101294.50;5068066;28;2036;-74
2023/06/03 07:19:25;;;;;;;;;;;;;;;14.11;53.42;101312.72;5070565;28;1473;-73
2023/06/03 07:21:51;;;;;;;;;;;;;;;14.12;53.24;101314.38;5070281;28;1514;-73
2023/06/03 07:24:18;;;;;;;;;;;;;;;14.09;53.28;101313.78;5075092;28;1633;-75
2023/06/03 07:26:50;;;;;;;;;;;;;;;14.09;53.43;101311.09;5085079;28;2216;-73
2023/06/03 07:29:16;;;;;;;;;;;;;;;14.09;53.46;101311.09;5077313;28;1478;-75
2023/06/03 07:31:46;;;;;;;;;;;;;;;14.17;53.10;101306.41;5071064;28;1514;-72
2023/06/03 07:34:13;;;;;;;;;;;;;;;14.16;53.28;101302.88;5089579;28;1520;-74
2023/06/03 07:36:39;;;;;;;;;;;;;;;14.11;53.43;101308.13;5088925;28;2574;-73
2023/06/03 07:39:06;;;;;;;;;;;;;;;14.29;53.07;101299.19;5092183;28;1747;-72
2023/06/03 07:41:33;;;;;;;;;;;;;;;14.13;53.35;101297.09;5092684;28;1489;-73
2023/06/03 07:43:59;;;;;;;;;;;;;;;14.10;53.48;101306.50;5091923;28;1995;-73
2023/06/03 07:46:26;;;;;;;;;;;;;;;14.11;53.46;101299.19;5099867;28;4004;-72
2023/06/03 07:48:53;;;;;;;;;;;;;;;14.09;53.28;101305.66;5103299;28;2521;-73
2023/06/03 07:51:19;;;;;;;;;;;;;;;14.14;53.43;101296.84;5104288;28;1524;-75
2023/06/03 07:53:46;;;;;;;;;;;;;;;14.10;53.37;101284.81;5086668;28;2837;-73
2023/06/03 07:56:12;;;;;;;;;;;;;;;14.09;53.30;101288.59;5103035;28;2067;-73
2023/06/03 07:58:44;;;;;;;;;;;;;;;14.12;53.45;101284.56;5104023;28;1507;-74
2023/06/03 08:01:11;;;;;;;;;;;;;;;14.09;53.52;101285.88;5103040;28;1398;-74
2023/06/03 08:03:38;;;;;;;;;;;;;;;14.06;53.61;101283.63;5103027;28;2576;-73
2023/06/03 08:06:05;;;;;;;;;;;;;;;14.14;53.48;101282.47;5094670;28;2056;-73
2023/06/03 08:08:31;;;;;;;;;;;;;;;14.18;53.08;101287.25;5086650;28;3379;-72
2023/06/03 08:10:58;;;;;;;;;;;;;;;14.12;53.52;101285.44;5097048;28;2554;-73
2023/06/03 08:13:24;;;;;;;;;;;;;;;14.27;53.07;101271.50;5098253;28;1315;-73
2023/06/03 08:15:51;;;;;;;;;;;;;;;14.14;53.45;101274.34;5102690;28;2061;-72
2023/06/03 08:18:17;;;;;;;;;;;;;;;14.11;53.52;101278.34;5098930;28;1906;-73
2023/06/03 08:20:44;;;;;;;;;;;;;;;14.11;53.42;101272.09;5103183;28;1400;-73
2023/06/03 08:23:10;;;;;;;;;;;;;;;14.18;53.30;101273.69;5102115;28;1492;-73
2023/06/03 08:25:37;;;;;;;;;;;;;;;14.11;53.44;101266.69;5102846;28;1978;-74
2023/06/03 08:28:04;;;;;;;;;;;;;;;14.09;53.54;101267.75;5085317;28;3692;-75
2023/06/03 08:30:30;;;;;;;;;;;;;;;14.09;53.39;101265.03;5100826;28;3796;-74
2023/06/03 08:32:57;;;;;;;;;;;;;;;14.11;53.55;101267.50;5072536;28;1438;-73
2023/06/03 08:35:23;;;;;;;;;;;;;;;14.11;53.69;101263.97;5082961;28;2003;-74
2023/06/03 08:37:50;;;;;;;;;;;;;;;14.11;53.48;101255.84;5065349;28;1972;-74
2023/06/03 08:40:17;;;;;;;;;;;;;;;14.13;53.83;101256.47;5083629;28;1034;-74
2023/06/03 08:42:43;;;;;;;;;;;;;;;14.12;53.67;101252.06;5082725;28;1421;-74
2023/06/03 08:45:10;;;;;;;;;;;;;;;14.12;53.53;101255.63;5082455;28;1932;-74
2023/06/03 08:47:37;;;;;;;;;;;;;;;14.12;53.64;101252.94;5083995;28;1050;-73
2023/06/03 08:50:04;;;;;;;;;;;;;;;14.13;53.59;101254.56;5082301;28;1451;-74
2023/06/03 08:52:30;;;;;;;;;;;;;;;14.13;53.71;101246.44;5082667;28;1324;-73
2023/06/03 08:54:58;;;;;;;;;;;;;;;14.14;53.60;101248.09;5080971;28;2146;-74
2023/06/03 08:57:25;;;;;;;;;;;;;;;14.14;53.71;101250.78;5072823;28;1910;-73
2023/06/03 08:59:52;;;;;;;;;;;;;;;14.15;53.85;101246.19;5067291;28;1530;-74
2023/06/03 09:02:19;;;;;;;;;;;;;;;14.15;53.56;101244.34;5068592;28;1996;-74
2023/06/03 09:04:45;;;;;;;;;;;;;;;13.74;53.84;101175.44;5067981;28;1447;-74
2023/06/03 09:07:12;;;;;;;;;;;;;;;14.15;53.57;101233.50;5066362;28;3679;-74
2023/06/03 09:09:38;;;;;;;;;;;;;;;14.16;53.82;101228.91;5070171;28;1936;-74
2023/06/03 09:12:05;;;;;;;;;;;;;;;14.17;53.71;101227.84;5074518;28;2760;-74
2023/06/03 09:14:32;;;;;;;;;;;;;;;14.16;53.89;101221.63;5070885;28;1534;-74
2023/06/03 09:17:08;;;;;;;;;;;;;;;14.17;53.73;101222.44;5072493;28;1910;-74
2023/06/03 09:19:35;;;;;;;;;;;;;;;14.18;53.86;101221.41;5071447;28;1952;-74
2023/06/03 09:22:02;;;;;;;;;;;;;;;14.19;53.92;101209.50;5069246;28;1710;-74
2023/06/03 09:24:28;;;;;;;;;;;;;;;14.19;53.91;101215.75;5070584;28;3088;-74
2023/06/03 09:26:55;;;;;;;;;;;;;;;14.19;53.82;101212.22;5071960;28;1510;-74
2023/06/03 09:29:21;;;;;;;;;;;;;;;14.20;53.77;101211.16;5070915;28;1827;-73
2023/06/03 09:31:48;;;;;;;;;;;;;;;14.19;53.99;101204.91;5079910;28;1424;-74
2023/06/03 09:34:15;;;;;;;;;;;;;;;14.20;53.79;101201.13;5081410;28;1695;-74
2023/06/03 09:36:41;;;;;;;;;;;;;;;14.21;53.96;101201.97;5081333;28;1969;-73
2023/06/03 09:39:10;;;;;;;;;;;;;;;14.22;53.94;101196.31;5075393;28;1866;-74
2023/06/03 09:41:37;;;;;;;;;;;;;;;14.22;54.00;101195.50;5068734;28;1784;-73
2023/06/03 09:44:06;;;;;;;;;;;;;;;14.22;54.10;101188.19;5055444;28;1733;-73
2023/06/03 09:46:32;;;;;;;;;;;;;;;14.23;54.05;101189.00;5067483;28;1818;-74
2023/06/03 09:48:59;;;;;;;;;;;;;;;14.24;54.00;101187.97;5067777;28;2035;-74
2023/06/03 09:51:25;;;;;;;;;;;;;;;14.23;53.92;101184.41;5068975;28;1524;-73
2023/06/03 09:53:52;;;;;;;;;;;;;;;14.25;54.05;101178.78;5069531;28;1433;-74
2023/06/03 09:56:18;;;;;;;;;;;;;;;14.25;53.90;101185.03;5067526;28;2055;-74
2023/06/03 09:58:45;;;;;;;;;;;;;;;14.26;53.70;101185.84;5069719;28;1910;-75
2023/06/03 10:01:11;;;;;;;;;;;;;;;14.26;54.06;101192.09;5073492;28;1589;-75
2023/06/03 10:03:38;;;;;;;;;;;;;;;14.28;54.04;101191.88;5080469;28;1320;-75
2023/06/03 10:06:05;;;;;;;;;;;;;;;14.27;53.91;101193.75;5081313;28;1992;-73
2023/06/03 10:08:31;;;;;;;;;;;;;;;14.28;54.07;101187.28;5081710;28;2028;-73
2023/06/03 10:10:58;;;;;;;;;;;;;;;14.19;53.84;101169.69;5079332;28;3477;-74
2023/06/03 10:13:25;;;;;;;;;;;;;;;14.29;54.09;101185.38;5080520;28;2106;-73
2023/06/03 10:15:52;;;;;;;;;;;;;;;14.30;53.87;101184.34;5080777;28;1987;-73
2023/06/03 10:18:18;;;;;;;;;;;;;;;14.31;54.00;101178.69;5080251;28;1913;-73
2023/06/03 10:20:45;;;;;;;;;;;;;;;14.32;54.21;101184.94;5079931;28;1632;-73
2023/06/03 10:23:11;;;;;;;;;;;;;;;14.33;54.23;101186.59;5079624;28;3867;-74
2023/06/03 10:25:38;;;;;;;;;;;;;;;14.35;54.08;101189.06;5072083;28;2812;-72
2023/06/03 10:28:05;;;;;;;;;;;;;;;14.35;54.16;101189.88;5080272;28;1529;-74
2023/06/03 10:30:31;;;;;;;;;;;;;;;14.36;53.99;101188.84;5079269;28;2911;-74
2023/06/03 10:32:58;;;;;;;;;;;;;;;14.37;54.16;101184.25;5078540;28;1502;-74
2023/06/03 10:35:26;;;;;;;;;;;;;;;14.37;54.18;101185.06;5079626;28;2168;-73
2023/06/03 10:37:59;;;;;;;;;;;;;;;14.37;54.15;101176.94;5081825;28;1901;-74
2023/06/03 10:40:26;;;;;;;;;;;;;;;14.37;54.12;101178.84;5071931;28;1628;-73
2023/06/03 10:42:52;;;;;;;;;;;;;;;14.39;54.30;101180.25;5066539;28;2442;-74
2023/06/03 10:45:19;;;;;;;;;;;;;;;14.38;54.22;101184.00;5067802;28;2151;-74
2023/06/03 10:47:45;;;;;;;;;;;;;;;14.38;54.10;101178.59;5054956;28;1553;-74
2023/06/03 10:50:12;;;;;;;;;;;;;;;14.40;54.23;101181.09;5084218;28;1438;-74
2023/06/03 10:52:38;;;;;;;;;;;;;;;14.41;54.27;101183.56;5065567;28;1443;-73
2023/06/03 10:55:05;;;;;;;;;;;;;;;14.43;54.18;101175.19;5084081;28;2265;-72
2023/06/03 10:57:31;;;;;;;;;;;;;;;14.45;54.35;101171.22;5083259;28;2021;-74
2023/06/03 10:59:58;;;;;;;;;;;;;;;14.45;54.33;101167.69;5084499;28;1656;-75
2023/06/03 11:02:25;;;;;;;;;;;;;;;14.46;54.24;101172.84;5083699;28;2253;-73
2023/06/03 11:04:52;;;;;;;;;;;;;;;14.48;54.32;101167.22;5083668;28;2345;-73
2023/06/03 11:07:18;;;;;;;;;;;;;;;14.93;54.33;101162.16;5063722;28;1404;-72
2023/06/03 11:09:45;;;;;;;;;;;;;;;14.93;53.43;101162.16;5084035;28;1572;-73
2023/06/03 11:12:13;;;;;;;;;;;;;;;14.74;54.14;101166.03;5083343;28;2044;-73
2023/06/03 11:14:41;;;;;;;;;;;;;;;14.67;54.46;101171.53;5066458;28;1468;-73
2023/06/03 11:17:15;;;;;;;;;;;;;;;14.66;54.75;101172.59;5067187;28;1898;-76
2023/06/03 11:19:42;;;;;;;;;;;;;;;14.66;55.15;101169.06;5083903;28;1634;-75
2023/06/03 11:22:08;;;;;;;;;;;;;;;14.65;55.24;101164.72;5082740;28;2000;-75
2023/06/03 11:24:35;;;;;;;;;;;;;;;14.66;55.13;101174.50;5084289;28;1401;-73
2023/06/03 11:27:01;;;;;;;;;;;;;;;14.66;55.15;101167.19;5083068;28;1666;-73
2023/06/03 11:29:28;;;;;;;;;;;;;;;14.66;55.08;101166.34;5066463;28;1371;-73
2023/06/03 11:31:54;;;;;;;;;;;;;;;14.66;55.01;101169.88;5083767;28;1940;-73
2023/06/03 11:34:21;;;;;;;;;;;;;;;14.68;54.95;101172.38;5084043;28;1378;-73
2023/06/03 11:36:48;;;;;;;;;;;;;;;14.69;55.05;101165.88;5081024;28;3508;-74
2023/06/03 11:39:14;;;;;;;;;;;;;;;14.68;55.03;101164.25;5079932;28;2622;-74
2023/06/03 11:41:41;;;;;;;;;;;;;;;14.66;54.71;101171.78;5083822;28;2518;-73
2023/06/03 11:44:07;;;;;;;;;;;;;;;14.70;54.60;101171.06;5082294;28;1584;-74
2023/06/03 11:46:37;;;;;;;;;;;;;;;14.70;54.70;101175.66;5083739;28;1414;-73
2023/06/03 11:49:04;;;;;;;;;;;;;;;14.71;54.78;101175.44;5084535;28;1315;-74
2023/06/03 11:51:30;;;;;;;;;;;;;;;14.72;54.77;101162.72;5082760;28;2020;-74
2023/06/03 11:54:07;;;;;;;;;;;;;;;14.73;54.69;101162.47;5083139;28;2329;-74
2023/06/03 11:56:39;;;;;;;;;;;;;;;14.73;54.68;101167.88;5083054;28;1065;-73
2023/06/03 11:59:06;;;;;;;;;;;;;;;14.30;54.85;101097.66;5081424;28;1914;-73
2023/06/03 12:01:34;;;;;;;;;;;;;;;14.76;54.78;101166.59;5082729;28;1904;-74
2023/06/03 12:04:00;;;;;;;;;;;;;;;14.77;54.77;101166.38;5084412;28;1515;-74
2023/06/03 12:06:27;;;;;;;;;;;;;;;14.80;54.74;101164.28;5083139;28;1342;-74
2023/06/03 12:08:53;;;;;;;;;;;;;;;14.80;55.00;101167.81;5083541;28;960;-73
2023/06/03 12:11:20;;;;;;;;;;;;;;;14.80;55.02;101158.84;5083540;28;1949;-72
2023/06/03 12:13:48;;;;;;;;;;;;;;;14.81;54.92;101160.50;5083457;28;1361;-73
2023/06/03 12:16:14;;;;;;;;;;;;;;;14.82;54.94;101156.72;5083811;28;1425;-73
2023/06/03 12:18:41;;;;;;;;;;;;;;;14.83;54.81;101153.78;5064612;28;1913;-74
2023/06/03 12:21:07;;;;;;;;;;;;;;;14.84;54.97;101147.28;5082695;28;1972;-75
2023/06/03 12:23:34;;;;;;;;;;;;;;;14.85;55.03;101138.09;5068370;28;1407;-75
2023/06/03 12:26:01;;;;;;;;;;;;;;;14.86;54.76;101142.47;5077920;28;1536;-74
2023/06/03 12:28:28;;;;;;;;;;;;;;;14.85;54.89;101138.09;5066588;28;1352;-74
2023/06/03 12:30:55;;;;;;;;;;;;;;;14.87;54.85;101138.69;5065478;28;1929;-73
2023/06/03 12:33:22;;;;;;;;;;;;;;;14.87;54.86;101144.09;5084273;28;1378;-74
2023/06/03 12:35:48;;;;;;;;;;;;;;;14.44;54.98;101074.72;5082913;28;1424;-75
2023/06/03 12:38:15;;;;;;;;;;;;;;;14.92;54.87;101138.81;5082984;28;2003;-74
2023/06/03 12:40:41;;;;;;;;;;;;;;;14.91;54.92;101126.31;5083357;28;1952;-74
2023/06/03 12:43:08;;;;;;;;;;;;;;;14.93;54.94;101129.63;5083003;28;1518;-73
2023/06/03 12:45:35;;;;;;;;;;;;;;;14.95;54.94;101132.94;5082709;28;1369;-73
2023/06/03 12:48:01;;;;;;;;;;;;;;;14.97;54.97;101127.25;5081195;28;1448;-73
2023/06/03 12:50:38;;;;;;;;;;;;;;;14.98;55.13;101127.03;5081697;28;2139;-74
2023/06/03 12:53:05;;;;;;;;;;;;;;;14.99;54.95;101128.66;5065029;28;1702;-74
2023/06/03 12:55:31;;;;;;;;;;;;;;;14.99;55.11;101117.81;5083554;28;1046;-74